sensor_id;sensor_type;location;lat;lon;timestamp;P1;durP1;ratioP1;P2;durP2;ratioP2
21505;SDS011;10914;48.886;9.394;2023-07-29T00:00:19;265.45;;;252.65;;
21505;SDS011;10914;48.886;9.394;2023-07-29T00:02:44;283.52;;;270.20;;
21505;SDS011;10914;48.886;9.394;2023-07-29T00:05:09;271.83;;;259.20;;
21505;SDS011;10914;48.886;9.394;2023-07-29T00:07:35;289.03;;;275.33;;
21505;SDS011;10914;48.886;9.394;2023-07-29T00:10:00;234.35;;;223.57;;
21505;SDS011;10914;48.886;9.394;2023-07-29T00:12:25;98.07;;;93.40;;
21505;SDS011;10914;48.886;9.394;2023-07-29T00:14:50;77.20;;;73.40;;
21505;SDS011;10914;48.886;9.394;2023-07-29T00:17:15;71.83;;;68.33;;
21505;SDS011;10914;48.886;9.394;2023-07-29T00:19:40;92.80;;;88.27;;
21505;SDS011;10914;48.886;9.394;2023-07-29T00:22:06;120.25;;;114.78;;
21505;SDS011;10914;48.886;9.394;2023-07-29T00:24:33;120.28;;;114.85;;
21505;SDS011;10914;48.886;9.394;2023-07-29T00:26:58;159.00;;;151.70;;
21505;SDS011;10914;48.886;9.394;2023-07-29T00:29:23;143.93;;;137.37;;
21505;SDS011;10914;48.886;9.394;2023-07-29T00:31:48;113.83;;;108.50;;
21505;SDS011;10914;48.886;9.394;2023-07-29T00:34:14;100.00;;;95.33;;
21505;SDS011;10914;48.886;9.394;2023-07-29T00:36:43;91.80;;;87.55;;
21505;SDS011;10914;48.886;9.394;2023-07-29T00:39:08;95.03;;;90.60;;
21505;SDS011;10914;48.886;9.394;2023-07-29T00:41:33;134.73;;;128.70;;
21505;SDS011;10914;48.886;9.394;2023-07-29T00:43:59;124.57;;;118.87;;
21505;SDS011;10914;48.886;9.394;2023-07-29T00:46:24;156.40;;;149.23;;
21505;SDS011;10914;48.886;9.394;2023-07-29T00:48:49;173.32;;;165.43;;
21505;SDS011;10914;48.886;9.394;2023-07-29T00:51:14;174.45;;;166.68;;
21505;SDS011;10914;48.886;9.394;2023-07-29T00:53:39;163.33;;;155.97;;
21505;SDS011;10914;48.886;9.394;2023-07-29T00:56:05;109.73;;;104.70;;
21505;SDS011;10914;48.886;9.394;2023-07-29T00:58:30;125.65;;;119.82;;
21505;SDS011;10914;48.886;9.394;2023-07-29T01:00:55;169.80;;;161.77;;
21505;SDS011;10914;48.886;9.394;2023-07-29T01:03:20;276.15;;;263.67;;
21505;SDS011;10914;48.886;9.394;2023-07-29T01:06:04;149.00;;;142.07;;
21505;SDS011;10914;48.886;9.394;2023-07-29T01:11:10;208.93;;;198.95;;
21505;SDS011;10914;48.886;9.394;2023-07-29T01:13:44;214.68;;;204.98;;
21505;SDS011;10914;48.886;9.394;2023-07-29T01:16:21;167.90;;;159.95;;
21505;SDS011;10914;48.886;9.394;2023-07-29T01:18:48;183.88;;;175.45;;
21505;SDS011;10914;48.886;9.394;2023-07-29T01:21:15;116.13;;;110.75;;
21505;SDS011;10914;48.886;9.394;2023-07-29T01:23:41;85.85;;;81.88;;
21505;SDS011;10914;48.886;9.394;2023-07-29T01:26:07;99.97;;;95.27;;
21505;SDS011;10914;48.886;9.394;2023-07-29T01:28:32;109.83;;;104.60;;
21505;SDS011;10914;48.886;9.394;2023-07-29T01:36:26;100.85;;;96.10;;
21505;SDS011;10914;48.886;9.394;2023-07-29T01:38:52;121.22;;;115.53;;
21505;SDS011;10914;48.886;9.394;2023-07-29T01:41:18;117.05;;;111.70;;
21505;SDS011;10914;48.886;9.394;2023-07-29T01:43:43;164.80;;;157.35;;
21505;SDS011;10914;48.886;9.394;2023-07-29T01:46:10;146.70;;;139.85;;
21505;SDS011;10914;48.886;9.394;2023-07-29T01:48:36;180.90;;;172.40;;
21505;SDS011;10914;48.886;9.394;2023-07-29T01:51:01;186.77;;;178.10;;
21505;SDS011;10914;48.886;9.394;2023-07-29T01:53:26;201.15;;;191.90;;
21505;SDS011;10914;48.886;9.394;2023-07-29T01:55:51;155.47;;;148.20;;
21505;SDS011;10914;48.886;9.394;2023-07-29T01:58:17;154.80;;;147.70;;
21505;SDS011;10914;48.886;9.394;2023-07-29T02:00:42;182.37;;;174.03;;
21505;SDS011;10914;48.886;9.394;2023-07-29T02:03:07;168.85;;;161.13;;
21505;SDS011;10914;48.886;9.394;2023-07-29T02:05:32;139.47;;;132.93;;
21505;SDS011;10914;48.886;9.394;2023-07-29T02:07:57;201.23;;;192.27;;
21505;SDS011;10914;48.886;9.394;2023-07-29T02:10:22;188.90;;;180.27;;
21505;SDS011;10914;48.886;9.394;2023-07-29T02:12:48;216.20;;;206.47;;
21505;SDS011;10914;48.886;9.394;2023-07-29T02:15:13;238.73;;;228.03;;
21505;SDS011;10914;48.886;9.394;2023-07-29T02:17:41;246.35;;;235.25;;
21505;SDS011;10914;48.886;9.394;2023-07-29T02:20:06;216.88;;;207.20;;
21505;SDS011;10914;48.886;9.394;2023-07-29T02:22:32;222.43;;;212.48;;
21505;SDS011;10914;48.886;9.394;2023-07-29T02:24:57;210.83;;;201.20;;
21505;SDS011;10914;48.886;9.394;2023-07-29T02:27:22;150.60;;;143.83;;
21505;SDS011;10914;48.886;9.394;2023-07-29T02:29:50;109.05;;;103.85;;
21505;SDS011;10914;48.886;9.394;2023-07-29T02:32:15;117.37;;;112.00;;
21505;SDS011;10914;48.886;9.394;2023-07-29T02:34:40;142.40;;;135.93;;
21505;SDS011;10914;48.886;9.394;2023-07-29T02:37:05;186.83;;;178.37;;
21505;SDS011;10914;48.886;9.394;2023-07-29T02:39:31;199.97;;;191.23;;
21505;SDS011;10914;48.886;9.394;2023-07-29T02:41:56;135.87;;;129.90;;
21505;SDS011;10914;48.886;9.394;2023-07-29T02:44:23;68.45;;;65.30;;
21505;SDS011;10914;48.886;9.394;2023-07-29T02:46:48;58.83;;;55.97;;
21505;SDS011;10914;48.886;9.394;2023-07-29T02:49:13;57.83;;;55.10;;
21505;SDS011;10914;48.886;9.394;2023-07-29T02:51:39;89.07;;;84.95;;
21505;SDS011;10914;48.886;9.394;2023-07-29T02:54:04;82.20;;;78.43;;
21505;SDS011;10914;48.886;9.394;2023-07-29T02:56:29;142.73;;;136.20;;
21505;SDS011;10914;48.886;9.394;2023-07-29T02:58:55;137.20;;;131.00;;
21505;SDS011;10914;48.886;9.394;2023-07-29T03:01:20;151.52;;;144.48;;
21505;SDS011;10914;48.886;9.394;2023-07-29T03:03:46;130.10;;;124.13;;
21505;SDS011;10914;48.886;9.394;2023-07-29T03:06:14;105.63;;;100.77;;
21505;SDS011;10914;48.886;9.394;2023-07-29T03:08:40;129.70;;;123.88;;
21505;SDS011;10914;48.886;9.394;2023-07-29T03:11:06;137.50;;;131.23;;
21505;SDS011;10914;48.886;9.394;2023-07-29T03:13:32;150.07;;;143.30;;
21505;SDS011;10914;48.886;9.394;2023-07-29T03:18:31;117.85;;;112.45;;
21505;SDS011;10914;48.886;9.394;2023-07-29T03:20:56;165.57;;;158.03;;
21505;SDS011;10914;48.886;9.394;2023-07-29T03:23:21;157.17;;;150.10;;
21505;SDS011;10914;48.886;9.394;2023-07-29T03:25:50;100.80;;;96.17;;
21505;SDS011;10914;48.886;9.394;2023-07-29T03:28:21;137.30;;;131.23;;
21505;SDS011;10914;48.886;9.394;2023-07-29T03:30:46;66.93;;;63.73;;
21505;SDS011;10914;48.886;9.394;2023-07-29T03:33:12;58.33;;;55.40;;
21505;SDS011;10914;48.886;9.394;2023-07-29T03:35:37;101.90;;;97.33;;
21505;SDS011;10914;48.886;9.394;2023-07-29T03:38:02;158.50;;;151.53;;
21505;SDS011;10914;48.886;9.394;2023-07-29T03:40:27;117.27;;;112.00;;
21505;SDS011;10914;48.886;9.394;2023-07-29T03:42:52;105.90;;;101.05;;
21505;SDS011;10914;48.886;9.394;2023-07-29T03:45:17;134.73;;;128.40;;
21505;SDS011;10914;48.886;9.394;2023-07-29T03:47:43;163.47;;;156.30;;
21505;SDS011;10914;48.886;9.394;2023-07-29T03:50:08;217.60;;;207.57;;
21505;SDS011;10914;48.886;9.394;2023-07-29T03:52:33;140.93;;;134.50;;
21505;SDS011;10914;48.886;9.394;2023-07-29T03:54:58;266.97;;;254.60;;
21505;SDS011;10914;48.886;9.394;2023-07-29T03:57:24;102.83;;;98.03;;
21505;SDS011;10914;48.886;9.394;2023-07-29T03:59:49;149.43;;;142.67;;
21505;SDS011;10914;48.886;9.394;2023-07-29T04:02:14;72.17;;;68.57;;
21505;SDS011;10914;48.886;9.394;2023-07-29T04:04:39;97.17;;;92.80;;
21505;SDS011;10914;48.886;9.394;2023-07-29T04:07:06;144.63;;;138.32;;
21505;SDS011;10914;48.886;9.394;2023-07-29T04:09:31;94.23;;;89.83;;
21505;SDS011;10914;48.886;9.394;2023-07-29T04:11:57;84.00;;;80.17;;
21505;SDS011;10914;48.886;9.394;2023-07-29T04:14:22;93.10;;;88.77;;
21505;SDS011;10914;48.886;9.394;2023-07-29T04:16:47;95.00;;;90.68;;
21505;SDS011;10914;48.886;9.394;2023-07-29T04:19:14;139.02;;;132.75;;
21505;SDS011;10914;48.886;9.394;2023-07-29T04:21:39;164.83;;;157.33;;
21505;SDS011;10914;48.886;9.394;2023-07-29T04:24:04;152.97;;;146.03;;
21505;SDS011;10914;48.886;9.394;2023-07-29T04:26:29;84.43;;;80.43;;
21505;SDS011;10914;48.886;9.394;2023-07-29T04:28:54;130.82;;;124.88;;
21505;SDS011;10914;48.886;9.394;2023-07-29T04:31:19;105.20;;;100.40;;
21505;SDS011;10914;48.886;9.394;2023-07-29T04:33:45;149.05;;;142.07;;
21505;SDS011;10914;48.886;9.394;2023-07-29T04:36:10;98.28;;;93.72;;
21505;SDS011;10914;48.886;9.394;2023-07-29T04:38:36;95.30;;;90.83;;
21505;SDS011;10914;48.886;9.394;2023-07-29T04:41:02;122.00;;;116.43;;
21505;SDS011;10914;48.886;9.394;2023-07-29T04:43:30;134.27;;;128.10;;
21505;SDS011;10914;48.886;9.394;2023-07-29T04:45:56;135.18;;;129.02;;
21505;SDS011;10914;48.886;9.394;2023-07-29T04:48:21;85.32;;;81.32;;
21505;SDS011;10914;48.886;9.394;2023-07-29T04:50:46;91.68;;;87.30;;
21505;SDS011;10914;48.886;9.394;2023-07-29T04:53:12;157.23;;;150.07;;
21505;SDS011;10914;48.886;9.394;2023-07-29T04:55:37;117.22;;;111.70;;
21505;SDS011;10914;48.886;9.394;2023-07-29T04:58:02;221.33;;;211.67;;
21505;SDS011;10914;48.886;9.394;2023-07-29T05:00:27;188.50;;;180.20;;
21505;SDS011;10914;48.886;9.394;2023-07-29T05:02:52;144.47;;;137.77;;
21505;SDS011;10914;48.886;9.394;2023-07-29T05:05:17;172.68;;;164.93;;
21505;SDS011;10914;48.886;9.394;2023-07-29T05:07:43;182.03;;;173.47;;
21505;SDS011;10914;48.886;9.394;2023-07-29T05:10:08;142.07;;;135.43;;
21505;SDS011;10914;48.886;9.394;2023-07-29T05:12:33;129.73;;;123.75;;
21505;SDS011;10914;48.886;9.394;2023-07-29T05:14:58;122.50;;;116.83;;
21505;SDS011;10914;48.886;9.394;2023-07-29T05:17:23;138.07;;;131.63;;
21505;SDS011;10914;48.886;9.394;2023-07-29T05:19:49;114.27;;;108.90;;
21505;SDS011;10914;48.886;9.394;2023-07-29T05:22:14;123.90;;;117.77;;
21505;SDS011;10914;48.886;9.394;2023-07-29T05:24:39;130.00;;;123.93;;
21505;SDS011;10914;48.886;9.394;2023-07-29T05:27:04;207.40;;;198.23;;
21505;SDS011;10914;48.886;9.394;2023-07-29T05:29:29;85.95;;;81.95;;
21505;SDS011;10914;48.886;9.394;2023-07-29T05:31:55;88.60;;;84.40;;
21505;SDS011;10914;48.886;9.394;2023-07-29T05:34:20;64.30;;;61.05;;
21505;SDS011;10914;48.886;9.394;2023-07-29T05:36:45;64.45;;;61.40;;
21505;SDS011;10914;48.886;9.394;2023-07-29T05:39:10;63.00;;;60.00;;
21505;SDS011;10914;48.886;9.394;2023-07-29T05:41:37;84.70;;;80.60;;
21505;SDS011;10914;48.886;9.394;2023-07-29T05:44:02;121.83;;;116.23;;
21505;SDS011;10914;48.886;9.394;2023-07-29T05:46:27;120.80;;;115.32;;
21505;SDS011;10914;48.886;9.394;2023-07-29T05:48:52;106.57;;;101.60;;
21505;SDS011;10914;48.886;9.394;2023-07-29T05:51:18;147.65;;;140.73;;
21505;SDS011;10914;48.886;9.394;2023-07-29T05:53:43;251.10;;;239.77;;
21505;SDS011;10914;48.886;9.394;2023-07-29T05:56:08;333.23;;;316.73;;
21505;SDS011;10914;48.886;9.394;2023-07-29T05:58:35;397.40;;;377.27;;
21505;SDS011;10914;48.886;9.394;2023-07-29T06:01:00;393.10;;;373.27;;
21505;SDS011;10914;48.886;9.394;2023-07-29T06:03:25;421.02;;;400.00;;
21505;SDS011;10914;48.886;9.394;2023-07-29T06:05:51;399.30;;;379.97;;
21505;SDS011;10914;48.886;9.394;2023-07-29T06:08:16;248.45;;;236.50;;
21505;SDS011;10914;48.886;9.394;2023-07-29T06:10:41;145.55;;;139.13;;
21505;SDS011;10914;48.886;9.394;2023-07-29T06:13:06;157.40;;;150.47;;
21505;SDS011;10914;48.886;9.394;2023-07-29T06:15:31;76.97;;;73.40;;
21505;SDS011;10914;48.886;9.394;2023-07-29T06:17:57;63.47;;;60.43;;
21505;SDS011;10914;48.886;9.394;2023-07-29T06:20:22;69.63;;;66.37;;
21505;SDS011;10914;48.886;9.394;2023-07-29T06:22:47;83.10;;;79.03;;
21505;SDS011;10914;48.886;9.394;2023-07-29T06:25:12;72.57;;;69.20;;
21505;SDS011;10914;48.886;9.394;2023-07-29T06:27:37;70.70;;;67.40;;
21505;SDS011;10914;48.886;9.394;2023-07-29T06:30:03;43.27;;;41.13;;
21505;SDS011;10914;48.886;9.394;2023-07-29T06:32:28;40.25;;;38.33;;
21505;SDS011;10914;48.886;9.394;2023-07-29T06:34:53;28.83;;;27.42;;
21505;SDS011;10914;48.886;9.394;2023-07-29T06:37:19;30.45;;;28.83;;
21505;SDS011;10914;48.886;9.394;2023-07-29T06:39:44;36.30;;;34.42;;
21505;SDS011;10914;48.886;9.394;2023-07-29T06:42:09;37.30;;;35.37;;
21505;SDS011;10914;48.886;9.394;2023-07-29T06:44:35;29.02;;;27.65;;
21505;SDS011;10914;48.886;9.394;2023-07-29T06:47:00;27.80;;;26.40;;
21505;SDS011;10914;48.886;9.394;2023-07-29T06:49:25;25.50;;;24.27;;
21505;SDS011;10914;48.886;9.394;2023-07-29T06:51:50;23.87;;;22.70;;
21505;SDS011;10914;48.886;9.394;2023-07-29T06:54:16;43.10;;;40.90;;
21505;SDS011;10914;48.886;9.394;2023-07-29T06:56:41;47.33;;;45.05;;
21505;SDS011;10914;48.886;9.394;2023-07-29T06:59:06;36.67;;;34.87;;
21505;SDS011;10914;48.886;9.394;2023-07-29T07:01:31;37.17;;;35.37;;
21505;SDS011;10914;48.886;9.394;2023-07-29T07:03:57;67.40;;;64.27;;
21505;SDS011;10914;48.886;9.394;2023-07-29T07:06:23;43.72;;;41.70;;
21505;SDS011;10914;48.886;9.394;2023-07-29T07:08:49;33.95;;;32.22;;
21505;SDS011;10914;48.886;9.394;2023-07-29T07:11:14;30.60;;;28.97;;
21505;SDS011;10914;48.886;9.394;2023-07-29T07:13:39;43.40;;;41.27;;
21505;SDS011;10914;48.886;9.394;2023-07-29T07:16:05;36.13;;;34.40;;
21505;SDS011;10914;48.886;9.394;2023-07-29T07:18:30;42.63;;;40.67;;
21505;SDS011;10914;48.886;9.394;2023-07-29T07:20:55;65.50;;;62.40;;
21505;SDS011;10914;48.886;9.394;2023-07-29T07:23:20;61.88;;;58.97;;
21505;SDS011;10914;48.886;9.394;2023-07-29T07:25:47;49.88;;;47.53;;
21505;SDS011;10914;48.886;9.394;2023-07-29T07:28:12;74.07;;;70.60;;
21505;SDS011;10914;48.886;9.394;2023-07-29T07:30:40;56.03;;;53.37;;
21505;SDS011;10914;48.886;9.394;2023-07-29T07:33:08;115.30;;;110.00;;
21505;SDS011;10914;48.886;9.394;2023-07-29T07:35:34;44.47;;;42.30;;
21505;SDS011;10914;48.886;9.394;2023-07-29T07:37:59;57.13;;;54.33;;
21505;SDS011;10914;48.886;9.394;2023-07-29T07:40:26;27.52;;;26.02;;
21505;SDS011;10914;48.886;9.394;2023-07-29T07:42:52;28.95;;;27.40;;
21505;SDS011;10914;48.886;9.394;2023-07-29T07:45:17;28.57;;;27.03;;
21505;SDS011;10914;48.886;9.394;2023-07-29T07:47:43;29.35;;;27.90;;
21505;SDS011;10914;48.886;9.394;2023-07-29T07:50:08;69.50;;;66.13;;
21505;SDS011;10914;48.886;9.394;2023-07-29T07:52:33;63.65;;;60.67;;
21505;SDS011;10914;48.886;9.394;2023-07-29T07:54:58;32.78;;;31.13;;
21505;SDS011;10914;48.886;9.394;2023-07-29T07:57:23;59.97;;;57.13;;
21505;SDS011;10914;48.886;9.394;2023-07-29T07:59:48;46.80;;;44.47;;
21505;SDS011;10914;48.886;9.394;2023-07-29T08:02:14;47.77;;;45.47;;
21505;SDS011;10914;48.886;9.394;2023-07-29T08:04:39;49.78;;;47.45;;
21505;SDS011;10914;48.886;9.394;2023-07-29T08:07:04;28.20;;;26.67;;
21505;SDS011;10914;48.886;9.394;2023-07-29T08:09:29;31.30;;;29.65;;
21505;SDS011;10914;48.886;9.394;2023-07-29T08:11:55;25.98;;;24.67;;
21505;SDS011;10914;48.886;9.394;2023-07-29T08:14:20;35.07;;;33.43;;
21505;SDS011;10914;48.886;9.394;2023-07-29T08:16:45;39.50;;;37.60;;
21505;SDS011;10914;48.886;9.394;2023-07-29T08:19:10;46.07;;;43.90;;
21505;SDS011;10914;48.886;9.394;2023-07-29T08:21:35;58.40;;;55.60;;
21505;SDS011;10914;48.886;9.394;2023-07-29T08:24:01;54.97;;;52.28;;
21505;SDS011;10914;48.886;9.394;2023-07-29T08:26:26;80.47;;;76.70;;
21505;SDS011;10914;48.886;9.394;2023-07-29T08:28:51;52.30;;;49.83;;
21505;SDS011;10914;48.886;9.394;2023-07-29T08:31:16;26.27;;;24.80;;
21505;SDS011;10914;48.886;9.394;2023-07-29T08:33:42;27.53;;;25.97;;
21505;SDS011;10914;48.886;9.394;2023-07-29T08:36:07;22.17;;;21.00;;
21505;SDS011;10914;48.886;9.394;2023-07-29T08:38:32;25.93;;;24.40;;
21505;SDS011;10914;48.886;9.394;2023-07-29T08:43:29;26.95;;;25.63;;
21505;SDS011;10914;48.886;9.394;2023-07-29T08:45:55;32.83;;;31.25;;
21505;SDS011;10914;48.886;9.394;2023-07-29T08:48:24;33.22;;;31.70;;
21505;SDS011;10914;48.886;9.394;2023-07-29T08:50:54;22.05;;;20.85;;
21505;SDS011;10914;48.886;9.394;2023-07-29T08:53:20;20.50;;;19.50;;
21505;SDS011;10914;48.886;9.394;2023-07-29T08:55:45;18.85;;;17.95;;
21505;SDS011;10914;48.886;9.394;2023-07-29T08:58:10;18.87;;;17.87;;
21505;SDS011;10914;48.886;9.394;2023-07-29T09:00:36;21.88;;;20.73;;
21505;SDS011;10914;48.886;9.394;2023-07-29T09:03:02;22.63;;;21.52;;
21505;SDS011;10914;48.886;9.394;2023-07-29T09:05:32;20.88;;;19.80;;
21505;SDS011;10914;48.886;9.394;2023-07-29T09:07:57;18.88;;;17.98;;
21505;SDS011;10914;48.886;9.394;2023-07-29T09:10:23;20.35;;;19.25;;
21505;SDS011;10914;48.886;9.394;2023-07-29T09:12:49;20.23;;;19.27;;
21505;SDS011;10914;48.886;9.394;2023-07-29T09:15:25;18.63;;;17.73;;
21505;SDS011;10914;48.886;9.394;2023-07-29T09:17:51;19.55;;;18.45;;
21505;SDS011;10914;48.886;9.394;2023-07-29T09:20:17;20.75;;;19.65;;
21505;SDS011;10914;48.886;9.394;2023-07-29T09:22:48;21.35;;;20.25;;
21505;SDS011;10914;48.886;9.394;2023-07-29T09:25:13;19.83;;;18.77;;
21505;SDS011;10914;48.886;9.394;2023-07-29T09:27:41;19.60;;;18.60;;
21505;SDS011;10914;48.886;9.394;2023-07-29T09:30:06;19.70;;;18.60;;
21505;SDS011;10914;48.886;9.394;2023-07-29T09:32:32;20.70;;;19.70;;
21505;SDS011;10914;48.886;9.394;2023-07-29T09:34:57;19.33;;;18.33;;
21505;SDS011;10914;48.886;9.394;2023-07-29T09:37:22;19.38;;;18.45;;
21505;SDS011;10914;48.886;9.394;2023-07-29T09:39:48;20.63;;;19.50;;
21505;SDS011;10914;48.886;9.394;2023-07-29T09:42:20;22.13;;;21.00;;
21505;SDS011;10914;48.886;9.394;2023-07-29T09:44:48;22.55;;;21.48;;
21505;SDS011;10914;48.886;9.394;2023-07-29T09:47:22;22.25;;;21.17;;
21505;SDS011;10914;48.886;9.394;2023-07-29T09:49:48;20.08;;;19.17;;
21505;SDS011;10914;48.886;9.394;2023-07-29T09:52:19;20.90;;;19.90;;
21505;SDS011;10914;48.886;9.394;2023-07-29T09:54:45;19.33;;;18.40;;
21505;SDS011;10914;48.886;9.394;2023-07-29T09:57:14;18.95;;;18.05;;
21505;SDS011;10914;48.886;9.394;2023-07-29T09:59:39;18.33;;;17.35;;
21505;SDS011;10914;48.886;9.394;2023-07-29T10:02:04;18.30;;;17.40;;
21505;SDS011;10914;48.886;9.394;2023-07-29T10:04:31;19.85;;;18.85;;
21505;SDS011;10914;48.886;9.394;2023-07-29T10:06:57;19.42;;;18.42;;
21505;SDS011;10914;48.886;9.394;2023-07-29T10:09:22;19.48;;;18.38;;
21505;SDS011;10914;48.886;9.394;2023-07-29T10:11:48;18.80;;;17.80;;
21505;SDS011;10914;48.886;9.394;2023-07-29T10:14:15;22.27;;;21.17;;
21505;SDS011;10914;48.886;9.394;2023-07-29T10:16:41;19.77;;;18.73;;
21505;SDS011;10914;48.886;9.394;2023-07-29T10:19:07;24.42;;;23.10;;
21505;SDS011;10914;48.886;9.394;2023-07-29T10:21:32;23.45;;;22.30;;
21505;SDS011;10914;48.886;9.394;2023-07-29T10:23:58;22.58;;;21.25;;
21505;SDS011;10914;48.886;9.394;2023-07-29T10:26:25;25.80;;;24.52;;
21505;SDS011;10914;48.886;9.394;2023-07-29T10:28:52;20.05;;;18.90;;
21505;SDS011;10914;48.886;9.394;2023-07-29T10:31:19;20.85;;;19.85;;
21505;SDS011;10914;48.886;9.394;2023-07-29T10:33:45;30.42;;;28.83;;
21505;SDS011;10914;48.886;9.394;2023-07-29T10:36:10;18.55;;;17.55;;
21505;SDS011;10914;48.886;9.394;2023-07-29T10:38:36;20.73;;;19.73;;
21505;SDS011;10914;48.886;9.394;2023-07-29T10:41:01;31.50;;;30.00;;
21505;SDS011;10914;48.886;9.394;2023-07-29T10:45:55;22.13;;;21.02;;
21505;SDS011;10914;48.886;9.394;2023-07-29T10:53:42;23.55;;;22.45;;
21505;SDS011;10914;48.886;9.394;2023-07-29T10:56:07;19.43;;;18.40;;
21505;SDS011;10914;48.886;9.394;2023-07-29T10:58:32;21.60;;;20.50;;
21505;SDS011;10914;48.886;9.394;2023-07-29T11:00:57;20.93;;;19.93;;
21505;SDS011;10914;48.886;9.394;2023-07-29T11:03:22;21.23;;;20.23;;
21505;SDS011;10914;48.886;9.394;2023-07-29T11:05:52;18.83;;;17.83;;
21505;SDS011;10914;48.886;9.394;2023-07-29T11:11:08;19.02;;;18.13;;
21505;SDS011;10914;48.886;9.394;2023-07-29T11:13:34;23.75;;;22.58;;
21505;SDS011;10914;48.886;9.394;2023-07-29T11:16:00;23.13;;;22.02;;
21505;SDS011;10914;48.886;9.394;2023-07-29T11:18:26;21.05;;;20.05;;
21505;SDS011;10914;48.886;9.394;2023-07-29T11:20:53;19.50;;;18.60;;
21505;SDS011;10914;48.886;9.394;2023-07-29T11:23:19;18.88;;;17.98;;
21505;SDS011;10914;48.886;9.394;2023-07-29T11:25:44;17.75;;;16.88;;
21505;SDS011;10914;48.886;9.394;2023-07-29T11:28:09;18.70;;;17.80;;
21505;SDS011;10914;48.886;9.394;2023-07-29T11:30:36;18.10;;;17.30;;
21505;SDS011;10914;48.886;9.394;2023-07-29T11:33:03;19.17;;;18.25;;
21505;SDS011;10914;48.886;9.394;2023-07-29T11:35:28;17.43;;;16.60;;
21505;SDS011;10914;48.886;9.394;2023-07-29T11:37:54;17.00;;;16.20;;
21505;SDS011;10914;48.886;9.394;2023-07-29T11:40:20;19.40;;;18.50;;
21505;SDS011;10914;48.886;9.394;2023-07-29T11:42:46;18.95;;;18.15;;
21505;SDS011;10914;48.886;9.394;2023-07-29T11:45:11;19.13;;;18.23;;
21505;SDS011;10914;48.886;9.394;2023-07-29T11:47:37;17.92;;;17.13;;
21505;SDS011;10914;48.886;9.394;2023-07-29T11:50:06;19.33;;;18.43;;
21505;SDS011;10914;48.886;9.394;2023-07-29T11:52:35;17.60;;;16.80;;
21505;SDS011;10914;48.886;9.394;2023-07-29T11:55:01;18.27;;;17.48;;
21505;SDS011;10914;48.886;9.394;2023-07-29T11:57:27;18.08;;;17.17;;
21505;SDS011;10914;48.886;9.394;2023-07-29T11:59:52;17.63;;;16.83;;
21505;SDS011;10914;48.886;9.394;2023-07-29T12:02:18;18.70;;;17.80;;
21505;SDS011;10914;48.886;9.394;2023-07-29T12:04:44;17.17;;;16.38;;
21505;SDS011;10914;48.886;9.394;2023-07-29T12:07:11;18.05;;;17.25;;
21505;SDS011;10914;48.886;9.394;2023-07-29T12:09:37;17.25;;;16.45;;
21505;SDS011;10914;48.886;9.394;2023-07-29T12:12:06;18.48;;;17.67;;
21505;SDS011;10914;48.886;9.394;2023-07-29T12:14:31;18.63;;;17.83;;
21505;SDS011;10914;48.886;9.394;2023-07-29T12:16:56;17.67;;;16.88;;
21505;SDS011;10914;48.886;9.394;2023-07-29T12:19:24;16.75;;;15.95;;
21505;SDS011;10914;48.886;9.394;2023-07-29T12:21:55;16.83;;;15.93;;
21505;SDS011;10914;48.886;9.394;2023-07-29T12:24:22;17.67;;;16.77;;
21505;SDS011;10914;48.886;9.394;2023-07-29T12:26:47;17.38;;;16.58;;
21505;SDS011;10914;48.886;9.394;2023-07-29T12:29:16;17.63;;;16.80;;
21505;SDS011;10914;48.886;9.394;2023-07-29T12:31:41;17.00;;;16.10;;
21505;SDS011;10914;48.886;9.394;2023-07-29T12:34:07;17.13;;;16.33;;
21505;SDS011;10914;48.886;9.394;2023-07-29T12:36:45;17.83;;;16.92;;
21505;SDS011;10914;48.886;9.394;2023-07-29T12:39:20;15.95;;;15.15;;
21505;SDS011;10914;48.886;9.394;2023-07-29T12:41:45;16.98;;;16.17;;
21505;SDS011;10914;48.886;9.394;2023-07-29T12:44:11;16.55;;;15.85;;
21505;SDS011;10914;48.886;9.394;2023-07-29T12:46:36;20.42;;;19.40;;
21505;SDS011;10914;48.886;9.394;2023-07-29T12:49:01;18.07;;;17.17;;
21505;SDS011;10914;48.886;9.394;2023-07-29T12:51:26;19.67;;;18.77;;
21505;SDS011;10914;48.886;9.394;2023-07-29T12:53:53;16.57;;;15.77;;
21505;SDS011;10914;48.886;9.394;2023-07-29T12:56:18;16.80;;;15.90;;
21505;SDS011;10914;48.886;9.394;2023-07-29T12:58:43;19.33;;;18.33;;
21505;SDS011;10914;48.886;9.394;2023-07-29T13:01:08;19.33;;;18.42;;
21505;SDS011;10914;48.886;9.394;2023-07-29T13:03:34;20.17;;;19.17;;
21505;SDS011;10914;48.886;9.394;2023-07-29T13:05:59;16.60;;;15.80;;
21505;SDS011;10914;48.886;9.394;2023-07-29T13:08:24;16.73;;;15.93;;
21505;SDS011;10914;48.886;9.394;2023-07-29T13:10:49;16.57;;;15.73;;
21505;SDS011;10914;48.886;9.394;2023-07-29T13:13:14;16.60;;;15.80;;
21505;SDS011;10914;48.886;9.394;2023-07-29T13:15:39;16.93;;;15.67;;
21505;SDS011;10914;48.886;9.394;2023-07-29T13:18:05;16.60;;;15.70;;
21505;SDS011;10914;48.886;9.394;2023-07-29T13:20:30;18.23;;;17.43;;
21505;SDS011;10914;48.886;9.394;2023-07-29T13:22:55;16.60;;;15.80;;
21505;SDS011;10914;48.886;9.394;2023-07-29T13:25:20;16.37;;;15.40;;
21505;SDS011;10914;48.886;9.394;2023-07-29T13:27:45;17.47;;;16.67;;
21505;SDS011;10914;48.886;9.394;2023-07-29T13:30:10;16.93;;;15.90;;
21505;SDS011;10914;48.886;9.394;2023-07-29T13:32:36;19.70;;;18.70;;
21505;SDS011;10914;48.886;9.394;2023-07-29T13:35:01;17.13;;;16.03;;
21505;SDS011;10914;48.886;9.394;2023-07-29T13:37:26;16.87;;;16.07;;
21505;SDS011;10914;48.886;9.394;2023-07-29T13:39:51;15.70;;;14.80;;
21505;SDS011;10914;48.886;9.394;2023-07-29T13:42:16;16.57;;;15.77;;
21505;SDS011;10914;48.886;9.394;2023-07-29T13:44:41;15.03;;;14.33;;
21505;SDS011;10914;48.886;9.394;2023-07-29T13:47:06;21.50;;;20.40;;
21505;SDS011;10914;48.886;9.394;2023-07-29T13:49:32;18.60;;;17.50;;
21505;SDS011;10914;48.886;9.394;2023-07-29T13:51:57;19.30;;;18.40;;
21505;SDS011;10914;48.886;9.394;2023-07-29T13:54:22;17.60;;;16.70;;
21505;SDS011;10914;48.886;9.394;2023-07-29T13:56:47;17.67;;;16.77;;
21505;SDS011;10914;48.886;9.394;2023-07-29T13:59:12;16.98;;;16.17;;
21505;SDS011;10914;48.886;9.394;2023-07-29T14:01:37;18.63;;;17.70;;
21505;SDS011;10914;48.886;9.394;2023-07-29T14:04:03;20.65;;;19.60;;
21505;SDS011;10914;48.886;9.394;2023-07-29T14:06:29;20.70;;;19.70;;
21505;SDS011;10914;48.886;9.394;2023-07-29T14:08:54;20.55;;;19.55;;
21505;SDS011;10914;48.886;9.394;2023-07-29T14:11:19;19.80;;;18.90;;
21505;SDS011;10914;48.886;9.394;2023-07-29T14:13:44;17.10;;;16.25;;
21505;SDS011;10914;48.886;9.394;2023-07-29T14:16:09;17.87;;;16.97;;
21505;SDS011;10914;48.886;9.394;2023-07-29T14:18:34;19.80;;;18.83;;
21505;SDS011;10914;48.886;9.394;2023-07-29T14:21:00;17.67;;;16.88;;
21505;SDS011;10914;48.886;9.394;2023-07-29T14:23:25;17.00;;;16.10;;
21505;SDS011;10914;48.886;9.394;2023-07-29T14:25:50;15.87;;;15.07;;
21505;SDS011;10914;48.886;9.394;2023-07-29T14:28:15;16.23;;;15.43;;